Waasmunster, Belgium
Current Conditions -  °F | °C
As of 8:20 PM on Sunday 21 Dec 2014 (Local Time) from EBAW Reporting Station
Broken Clouds Broken Clouds  
Wind Chill: 40°   Ceiling: 900
Heat Index: 46°   Visibility: 6mi
Dew Point: 43°   Wind: 16mph
Humidity: 87%   Direction: 220°SW
Pressure: 30.24"   Gusts: 29mph
Location:  51.11°N, 4.09°E
Report Text: EBAW 211920Z 22014G25KT 9999 BKN009 BKN011 08/06 Q1024 TEMPO 23018G30KT
Loading
Personal Weather Stations






























Interactive Weather Map New forecast layout! Learn more

10-Day Weather Forecast

Advertisements
Track Severe Weather on mobile